Time;durP1;ratioP1;P1;durP2;ratioP2;P2;SDS_P1;SDS_P2;PMS_P1;PMS_P2;Temp;Humidity;BMP_temperature;BMP_pressure;BME280_temperature;BME280_humidity;BME280_pressure;Samples;Min_cycle;Max_cycle;Signal;HPM_P1;HPM_P2
2022/01/12 00:00:32;;;;;;;9.03;7.80;;;3.30;99.90;;;;;;10549853;28;20265;-81
2022/01/12 00:05:34;;;;;;;7.37;6.77;;;3.30;99.90;;;;;;10544308;28;20205;-79
2022/01/12 00:10:38;;;;;;;7.60;6.90;;;3.30;99.90;;;;;;10504356;28;20270;-79
2022/01/12 00:15:42;;;;;;;7.73;7.13;;;3.30;99.90;;;;;;10524764;28;20212;-79
2022/01/12 00:20:44;;;;;;;9.13;8.23;;;3.30;99.90;;;;;;10519656;28;20220;-79
2022/01/12 00:26:06;;;;;;;7.80;7.20;;;3.20;99.90;;;;;;10511412;28;20778;-78
2022/01/12 00:36:41;;;;;;;8.70;7.90;;;3.20;99.90;;;;;;10496533;28;20216;-78
2022/01/12 00:41:43;;;;;;;6.80;6.30;;;3.10;99.90;;;;;;10508461;28;20205;-78
2022/01/12 00:46:51;;;;;;;7.70;7.10;;;3.10;99.90;;;;;;10512963;28;20233;-77
2022/01/12 00:51:54;;;;;;;7.67;6.97;;;3.00;99.90;;;;;;10486022;28;20640;-78
2022/01/12 00:56:56;;;;;;;7.53;6.80;;;2.90;99.90;;;;;;10492416;28;20277;-77
2022/01/12 01:01:59;;;;;;;8.07;7.37;;;2.90;99.90;;;;;;10498658;28;20212;-77
2022/01/12 01:07:02;;;;;;;7.43;6.60;;;2.80;99.90;;;;;;10529850;28;20291;-78
2022/01/12 01:12:06;;;;;;;7.70;6.90;;;2.70;99.90;;;;;;10493653;28;20250;-78
2022/01/12 01:25:28;;;;;;;7.20;6.50;;;2.60;99.90;;;;;;10510367;28;20247;-79
2022/01/12 01:28:04;;;;;;;7.40;6.17;;;2.60;99.90;;;;;;10491315;28;20270;-79
2022/01/12 01:33:10;;;;;;;6.60;6.10;;;2.60;99.90;;;;;;10517160;28;20274;-78
2022/01/12 01:38:12;;;;;;;6.40;5.80;;;2.60;99.90;;;;;;10499045;28;20223;-78
2022/01/12 01:43:23;;;;;;;6.43;5.83;;;2.60;99.90;;;;;;10478691;28;20258;-77
2022/01/12 01:53:47;;;;;;;6.57;6.07;;;2.60;99.90;;;;;;10466438;28;20220;-78
2022/01/12 01:58:52;;;;;;;6.70;6.10;;;2.60;99.90;;;;;;10490011;28;20208;-77
2022/01/12 02:04:01;;;;;;;7.07;6.47;;;2.60;99.90;;;;;;10506904;28;20223;-79
2022/01/12 02:09:05;;;;;;;7.30;6.60;;;2.60;99.90;;;;;;10509108;28;20211;-79
2022/01/12 02:14:20;;;;;;;6.93;6.33;;;2.60;99.90;;;;;;10527940;28;20214;-78
2022/01/12 02:19:46;;;;;;;7.00;6.40;;;2.70;99.90;;;;;;10527471;28;20199;-78
2022/01/12 02:35:45;;;;;;;8.37;7.57;;;2.70;99.90;;;;;;10526536;28;20204;-78
2022/01/12 02:40:52;;;;;;;10.27;9.23;;;2.70;99.90;;;;;;10482363;28;20208;-77
2022/01/12 02:51:27;;;;;;;9.77;8.87;;;2.60;99.90;;;;;;10527658;28;20624;-79
2022/01/12 02:56:33;;;;;;;9.83;8.83;;;2.60;99.90;;;;;;10527497;28;20250;-79
2022/01/12 03:07:04;;;;;;;9.17;8.20;;;2.50;99.90;;;;;;10511093;28;20212;-78
2022/01/12 03:12:11;;;;;;;9.23;8.33;;;2.40;99.90;;;;;;10532395;28;20234;-77
2022/01/12 03:17:15;;;;;;;9.17;8.30;;;2.30;99.90;;;;;;10476583;28;20221;-78
2022/01/12 03:22:17;;;;;;;9.30;8.40;;;2.40;99.90;;;;;;10502327;28;20694;-78
2022/01/12 03:27:22;;;;;;;10.70;9.60;;;2.30;99.90;;;;;;10518784;28;20219;-79
2022/01/12 03:32:32;;;;;;;9.87;8.87;;;2.40;99.90;;;;;;10509160;28;20256;-79
2022/01/12 03:37:53;;;;;;;9.77;8.87;;;2.40;99.90;;;;;;10507554;28;20238;-79
2022/01/12 03:42:56;;;;;;;9.23;8.33;;;2.40;99.90;;;;;;10487836;28;20227;-79
2022/01/12 03:47:59;;;;;;;10.23;9.20;;;2.40;99.90;;;;;;10536624;28;20711;-77
2022/01/12 03:53:01;;;;;;;10.13;9.13;;;2.40;99.90;;;;;;10483918;28;20573;-77
2022/01/12 03:58:06;;;;;;;9.17;8.37;;;2.40;99.90;;;;;;10498880;28;20642;-77
2022/01/12 04:03:08;;;;;;;9.50;8.60;;;2.30;99.90;;;;;;10502216;28;20738;-77
2022/01/12 04:08:21;;;;;;;8.77;7.90;;;2.30;99.90;;;;;;10514989;28;20215;-78
2022/01/12 04:13:27;;;;;;;9.63;8.63;;;2.20;99.90;;;;;;10483909;28;20660;-78
2022/01/12 04:18:29;;;;;;;10.47;9.47;;;2.20;99.90;;;;;;10516232;28;20603;-78
2022/01/12 04:23:32;;;;;;;11.40;10.10;;;2.10;99.90;;;;;;10467044;28;20697;-78
2022/01/12 04:28:37;;;;;;;10.20;9.30;;;2.10;99.90;;;;;;10497045;28;20642;-78
2022/01/12 04:33:40;;;;;;;10.80;9.80;;;2.00;99.90;;;;;;10483670;28;20193;-77
2022/01/12 04:38:45;;;;;;;10.63;9.63;;;2.10;99.90;;;;;;10497618;28;20203;-78
2022/01/12 04:43:49;;;;;;;10.00;9.10;;;2.00;99.90;;;;;;10484063;28;20224;-78
2022/01/12 04:49:08;;;;;;;13.33;11.77;;;2.10;99.90;;;;;;10497593;28;20196;-78
2022/01/12 04:54:10;;;;;;;11.27;10.27;;;2.10;99.90;;;;;;10482010;28;20708;-77
2022/01/12 04:59:14;;;;;;;12.37;11.27;;;2.10;99.90;;;;;;10499049;28;20196;-77
2022/01/12 05:15:28;;;;;;;12.80;11.23;;;2.00;99.90;;;;;;10453722;28;20208;-78
2022/01/12 05:20:31;;;;;;;11.80;10.60;;;2.00;99.90;;;;;;10516681;28;20246;-78
2022/01/12 05:25:33;;;;;;;14.33;12.87;;;1.90;99.90;;;;;;10481303;28;20650;-77
2022/01/12 05:30:37;;;;;;;11.70;10.67;;;1.90;99.90;;;;;;10517061;28;20192;-78
2022/01/12 05:35:39;;;;;;;15.30;13.73;;;1.90;99.90;;;;;;10481600;28;20216;-79
2022/01/12 05:40:46;;;;;;;15.33;13.93;;;1.80;99.90;;;;;;10517801;28;20192;-78
2022/01/12 05:45:55;;;;;;;18.27;16.30;;;1.80;99.90;;;;;;10484123;28;20600;-78
2022/01/12 05:50:58;;;;;;;17.63;15.83;;;1.80;99.90;;;;;;10525862;28;20630;-78
2022/01/12 05:56:01;;;;;;;14.40;13.03;;;1.80;99.90;;;;;;10493353;28;20239;-77
2022/01/12 06:01:07;;;;;;;15.97;14.47;;;1.70;99.90;;;;;;10505041;28;20208;-80
2022/01/12 06:06:09;;;;;;;16.67;15.13;;;1.70;99.90;;;;;;10481959;28;20219;-80
2022/01/12 06:11:12;;;;;;;16.10;14.60;;;1.70;99.90;;;;;;10493015;28;20188;-79
2022/01/12 06:16:16;;;;;;;19.17;16.30;;;1.80;99.90;;;;;;10510798;28;20573;-79
2022/01/12 06:21:20;;;;;;;16.90;15.30;;;1.80;99.90;;;;;;10488074;28;20213;-79
2022/01/12 06:26:31;;;;;;;17.77;16.07;;;1.90;99.90;;;;;;10474333;28;20251;-80
2022/01/12 06:31:35;;;;;;;19.93;17.73;;;1.90;99.90;;;;;;10512532;28;20747;-80
2022/01/12 06:36:38;;;;;;;18.37;16.57;;;1.90;99.90;;;;;;10498787;22;20233;-79
2022/01/12 06:41:42;;;;;;;18.80;16.77;;;1.90;99.90;;;;;;10437985;28;20271;-78
2022/01/12 06:46:48;;;;;;;18.73;16.77;;;1.80;99.90;;;;;;10460070;28;20213;-80
2022/01/12 06:51:50;;;;;;;19.97;17.97;;;1.70;99.90;;;;;;10391835;28;20273;-81
2022/01/12 06:56:53;;;;;;;20.50;18.40;;;1.70;99.90;;;;;;10447777;28;20221;-81
2022/01/12 07:01:56;;;;;;;19.00;17.10;;;1.70;99.90;;;;;;10409809;28;20205;-80
2022/01/12 07:07:06;;;;;;;21.83;18.97;;;1.60;99.90;;;;;;10445513;28;20217;-81
2022/01/12 07:12:11;;;;;;;20.27;18.30;;;1.60;99.90;;;;;;10386785;28;20694;-79
2022/01/12 07:17:16;;;;;;;20.67;18.43;;;1.60;99.90;;;;;;10436188;28;20217;-80
2022/01/12 07:22:18;;;;;;;19.97;17.97;;;1.60;99.90;;;;;;10398574;28;20222;-77
2022/01/12 07:27:20;;;;;;;21.27;19.13;;;1.60;99.90;;;;;;10437150;28;20300;-78
2022/01/12 07:32:23;;;;;;;21.50;19.20;;;1.60;99.90;;;;;;10414877;28;20194;-77
2022/01/12 07:37:25;;;;;;;21.37;19.23;;;1.60;99.90;;;;;;10454870;28;20751;-77
2022/01/12 07:42:27;;;;;;;21.40;19.30;;;1.70;99.90;;;;;;10413627;28;20226;-79
2022/01/12 07:47:33;;;;;;;22.07;19.87;;;1.80;99.90;;;;;;10384518;28;20689;-81
2022/01/12 07:52:35;;;;;;;21.20;19.00;;;1.70;99.90;;;;;;10463067;28;20273;-79
2022/01/12 07:57:38;;;;;;;20.30;18.20;;;1.70;99.90;;;;;;10421245;28;20214;-80
2022/01/12 08:02:41;;;;;;;21.17;18.97;;;1.70;99.90;;;;;;10450619;28;20239;-81
2022/01/12 08:07:43;;;;;;;21.80;19.50;;;1.60;99.90;;;;;;10407181;28;20260;-81
2022/01/12 08:12:45;;;;;;;20.23;18.13;;;1.80;99.90;;;;;;10414771;28;20285;-80
2022/01/12 08:17:49;;;;;;;20.60;18.60;;;2.00;99.90;;;;;;10454450;28;20304;-80
2022/01/12 08:22:51;;;;;;;19.13;17.33;;;2.10;99.90;;;;;;10396570;28;20229;-78
2022/01/12 08:27:53;;;;;;;20.87;18.00;;;2.20;99.90;;;;;;10451393;28;20239;-78
2022/01/12 08:32:57;;;;;;;20.97;18.87;;;2.30;99.90;;;;;;10414691;28;20190;-79
2022/01/12 08:37:59;;;;;;;20.87;18.33;;;2.50;99.90;;;;;;10450527;28;20229;-77
2022/01/12 08:43:01;;;;;;;20.87;18.77;;;2.60;99.90;;;;;;10396787;28;20561;-78
2022/01/12 08:48:05;;;;;;;19.63;17.73;;;2.70;99.90;;;;;;10449689;28;20292;-78
2022/01/12 08:53:07;;;;;;;20.20;18.40;;;2.70;99.90;;;;;;10380776;28;20281;-77
2022/01/12 08:58:09;;;;;;;18.27;16.50;;;2.80;99.90;;;;;;10411198;28;20218;-81
2022/01/12 09:03:13;;;;;;;19.73;17.80;;;2.80;99.90;;;;;;10453072;28;20247;-80
2022/01/12 09:08:15;;;;;;;19.00;17.20;;;2.90;99.90;;;;;;10414153;28;20573;-80
2022/01/12 09:13:17;;;;;;;18.67;16.70;;;3.00;99.90;;;;;;10438849;28;20284;-81
2022/01/12 09:18:21;;;;;;;19.67;17.77;;;3.10;99.90;;;;;;10406778;28;20226;-78
2022/01/12 09:23:23;;;;;;;21.37;19.27;;;3.20;99.90;;;;;;10437942;28;20213;-78
2022/01/12 09:28:25;;;;;;;19.73;17.80;;;3.30;99.90;;;;;;10390297;28;20221;-77
2022/01/12 09:33:29;;;;;;;19.33;17.50;;;3.40;99.90;;;;;;10454037;28;20197;-79
2022/01/12 09:38:31;;;;;;;18.67;16.93;;;3.40;99.90;;;;;;10407335;28;20697;-78
2022/01/12 09:43:36;;;;;;;18.83;16.83;;;3.40;99.90;;;;;;10410252;28;20214;-79
2022/01/12 09:48:41;;;;;;;16.20;14.63;;;3.50;99.90;;;;;;10443547;28;20229;-79
2022/01/12 09:53:44;;;;;;;14.27;13.03;;;3.60;99.90;;;;;;10441580;28;20200;-78
2022/01/12 09:58:46;;;;;;;15.60;14.10;;;3.70;99.90;;;;;;10425248;28;20214;-77
2022/01/12 10:03:49;;;;;;;15.97;14.47;;;3.70;99.90;;;;;;10408721;28;20232;-79
2022/01/12 10:08:54;;;;;;;15.33;13.90;;;3.80;99.90;;;;;;10440798;28;20700;-78
2022/01/12 10:13:58;;;;;;;18.13;16.33;;;3.80;99.90;;;;;;10425200;28;20186;-79
2022/01/12 10:19:02;;;;;;;17.33;15.57;;;3.90;99.90;;;;;;10450266;28;20217;-78
2022/01/12 10:24:07;;;;;;;14.90;13.50;;;3.90;99.90;;;;;;10407821;28;20256;-78
2022/01/12 10:29:11;;;;;;;17.30;15.60;;;3.90;99.90;;;;;;10448739;28;20209;-78
2022/01/12 10:34:15;;;;;;;18.30;16.50;;;4.00;99.90;;;;;;10460653;28;20272;-82
2022/01/12 10:39:18;;;;;;;16.33;14.83;;;4.00;99.90;;;;;;10418794;28;20208;-82
2022/01/12 10:44:22;;;;;;;16.37;14.67;;;4.10;99.90;;;;;;10449520;28;20216;-77
2022/01/12 10:49:26;;;;;;;16.57;14.97;;;4.10;99.90;;;;;;10425368;28;20288;-81
2022/01/12 10:54:28;;;;;;;19.40;17.60;;;4.00;99.90;;;;;;10410151;28;20213;-80
2022/01/12 10:59:30;;;;;;;21.00;15.70;;;4.00;99.90;;;;;;10442931;28;20231;-82
2022/01/12 11:04:35;;;;;;;20.10;17.40;;;4.00;99.90;;;;;;10411635;28;20214;-81
2022/01/12 11:09:39;;;;;;;19.93;17.27;;;4.10;99.90;;;;;;10409832;28;20244;-81
2022/01/12 11:14:42;;;;;;;18.23;16.43;;;4.10;99.90;;;;;;10444237;28;20592;-81
2022/01/12 11:19:53;;;;;;;18.67;16.70;;;4.10;99.90;;;;;;10432280;28;20281;-81
2022/01/12 11:24:55;;;;;;;18.60;16.57;;;4.10;99.90;;;;;;10454454;28;20305;-81
2022/01/12 11:29:59;;;;;;;18.50;16.70;;;4.10;99.90;;;;;;10440957;28;20258;-81
2022/01/12 11:35:04;;;;;;;18.10;16.40;;;4.10;99.90;;;;;;10417008;28;20636;-81
2022/01/12 11:40:08;;;;;;;17.33;15.70;;;4.10;99.90;;;;;;10410901;28;20194;-82
2022/01/12 11:45:20;;;;;;;16.97;15.37;;;4.10;99.90;;;;;;10451163;28;20225;-79
2022/01/12 11:50:24;;;;;;;17.07;15.57;;;4.10;99.40;;;;;;10412889;28;20704;-81
2022/01/12 11:55:34;;;;;;;17.60;15.87;;;4.10;99.90;;;;;;10410843;28;20216;-81
2022/01/12 12:00:40;;;;;;;17.90;16.03;;;4.00;99.90;;;;;;10448417;28;20217;-80
2022/01/12 12:05:48;;;;;;;18.13;16.23;;;4.10;99.90;;;;;;10393869;28;20709;-82
2022/01/12 12:10:54;;;;;;;15.83;14.33;;;4.20;99.90;;;;;;10390813;28;20263;-81
2022/01/12 12:15:56;;;;;;;15.50;13.90;;;4.20;99.90;;;;;;10432165;28;20263;-82
2022/01/12 12:21:00;;;;;;;16.77;15.10;;;4.20;99.30;;;;;;10399835;28;20244;-81
2022/01/12 12:26:08;;;;;;;15.77;14.20;;;4.20;99.90;;;;;;10431924;28;20284;-80
2022/01/12 12:31:10;;;;;;;16.33;14.83;;;4.20;99.90;;;;;;10407528;28;20673;-81
2022/01/12 12:36:15;;;;;;;16.40;14.70;;;4.20;98.50;;;;;;10456703;22;20224;-83
2022/01/12 12:41:17;;;;;;;16.97;15.37;;;4.20;98.70;;;;;;10470219;28;20715;-82
2022/01/12 12:46:19;;;;;;;18.20;16.43;;;4.20;99.90;;;;;;10437417;28;20225;-81
2022/01/12 12:51:23;;;;;;;17.27;15.33;;;4.20;99.90;;;;;;10478314;28;20196;-82
2022/01/12 12:56:28;;;;;;;17.10;15.30;;;4.30;99.60;;;;;;10455157;28;20308;-83
2022/01/12 13:01:30;;;;;;;17.23;15.60;;;4.30;99.80;;;;;;10461885;28;20189;-83
2022/01/12 13:06:39;;;;;;;18.60;15.43;;;4.40;99.90;;;;;;10472497;28;21173;-82
2022/01/12 13:11:44;;;;;;;18.93;17.00;;;4.40;99.90;;;;;;10452528;28;20211;-81
2022/01/12 13:16:52;;;;;;;17.63;16.00;;;4.50;99.90;;;;;;10485069;28;20216;-82
2022/01/12 13:22:36;;;;;;;19.40;17.40;;;4.60;99.90;;;;;;10469583;28;20231;-83
2022/01/12 13:27:39;;;;;;;18.20;16.40;;;4.60;99.90;;;;;;10449957;28;20809;-81
2022/01/12 13:32:42;;;;;;;15.73;14.27;;;4.70;99.90;;;;;;10473668;28;20209;-81
2022/01/12 13:37:55;;;;;;;15.63;14.00;;;4.70;99.90;;;;;;10477891;28;20227;-82
2022/01/12 13:43:00;;;;;;;18.30;14.87;;;4.80;99.90;;;;;;10427133;28;20286;-83
2022/01/12 13:48:11;;;;;;;16.00;14.40;;;4.80;99.90;;;;;;10463926;28;20299;-82
2022/01/12 13:53:15;;;;;;;16.37;14.67;;;4.80;99.90;;;;;;10427653;28;20197;-83
2022/01/12 13:58:17;;;;;;;16.17;14.67;;;4.90;99.80;;;;;;10482632;28;20217;-83
2022/01/12 14:03:23;;;;;;;16.20;14.70;;;4.80;99.90;;;;;;10448511;28;20223;-82
2022/01/12 14:08:42;;;;;;;15.97;14.37;;;4.80;99.90;;;;;;10489997;28;20219;-83
2022/01/12 14:13:44;;;;;;;14.80;13.33;;;4.70;99.90;;;;;;10454432;28;20193;-83
2022/01/12 14:18:46;;;;;;;16.20;14.60;;;4.70;99.90;;;;;;10510390;28;20218;-82
2022/01/12 14:23:50;;;;;;;16.53;14.83;;;4.70;99.90;;;;;;10472492;28;20292;-82
2022/01/12 14:28:52;;;;;;;15.87;14.17;;;4.70;99.90;;;;;;10432632;28;20255;-83
2022/01/12 14:33:56;;;;;;;16.03;14.43;;;4.70;99.90;;;;;;10488750;28;20288;-83
2022/01/12 14:38:59;;;;;;;17.03;15.43;;;4.70;99.90;;;;;;10451162;28;20221;-83
2022/01/12 14:44:02;;;;;;;16.80;15.20;;;4.80;99.90;;;;;;10505594;28;20319;-82
2022/01/12 14:49:04;;;;;;;18.47;16.57;;;4.80;99.90;;;;;;10460157;28;20667;-83
2022/01/12 14:54:07;;;;;;;15.90;14.27;;;4.80;99.90;;;;;;10493282;28;20224;-83
2022/01/12 14:59:09;;;;;;;16.33;14.73;;;4.80;99.90;;;;;;10454644;28;20213;-83
2022/01/12 15:04:11;;;;;;;17.30;15.60;;;4.70;99.40;;;;;;10470236;28;20492;-83
2022/01/12 15:09:15;;;;;;;17.17;15.47;;;4.60;99.90;;;;;;10450821;28;20727;-83
2022/01/12 15:14:42;;;;;;;17.00;15.30;;;4.60;99.90;;;;;;10482376;28;20203;-82
2022/01/12 15:19:44;;;;;;;18.03;16.23;;;4.60;99.90;;;;;;10447962;28;20197;-82
2022/01/12 15:24:47;;;;;;;17.90;16.20;;;4.60;99.90;;;;;;10449684;28;20229;-83
2022/01/12 15:29:53;;;;;;;16.87;15.17;;;4.60;99.90;;;;;;10489422;28;20231;-83
2022/01/12 15:34:56;;;;;;;17.10;15.50;;;4.70;99.90;;;;;;10435757;28;20248;-82
2022/01/12 15:40:00;;;;;;;17.13;15.33;;;4.60;99.90;;;;;;10507168;28;20279;-82
2022/01/12 15:45:04;;;;;;;16.70;15.10;;;4.60;99.90;;;;;;10446854;28;20229;-82
2022/01/12 15:50:08;;;;;;;17.10;15.07;;;4.50;99.90;;;;;;10477770;28;20193;-81
2022/01/12 15:55:12;;;;;;;16.60;15.10;;;4.40;99.90;;;;;;10465269;28;20226;-79
2022/01/12 16:00:15;;;;;;;19.80;15.90;;;4.30;99.90;;;;;;10443713;28;20280;-81
2022/01/12 16:05:18;;;;;;;18.93;16.10;;;4.20;99.90;;;;;;10454957;28;20248;-82
2022/01/12 16:10:25;;;;;;;16.50;14.90;;;4.00;99.90;;;;;;10466663;28;20200;-81
2022/01/12 16:15:27;;;;;;;16.67;14.97;;;3.70;99.90;;;;;;10444858;28;20214;-82
2022/01/12 16:20:30;;;;;;;19.00;17.03;;;3.60;99.90;;;;;;10497494;28;20217;-82
2022/01/12 16:25:34;;;;;;;16.43;14.87;;;3.60;99.90;;;;;;10508994;28;20709;-80
2022/01/12 16:30:50;;;;;;;17.03;15.33;;;3.50;99.90;;;;;;10461827;28;20684;-80
2022/01/12 16:35:52;;;;;;;18.47;16.67;;;3.40;99.90;;;;;;10499231;28;20283;-82
2022/01/12 16:41:02;;;;;;;19.83;17.83;;;3.40;99.90;;;;;;10428297;28;20193;-81
2022/01/12 16:46:06;;;;;;;19.07;17.20;;;3.30;99.90;;;;;;10480398;28;20221;-79
2022/01/12 16:51:09;;;;;;;18.20;16.40;;;3.20;99.90;;;;;;10468630;28;20207;-81
2022/01/12 16:56:14;;;;;;;21.10;18.90;;;3.10;99.90;;;;;;10482557;28;20723;-80
2022/01/12 17:01:17;;;;;;;20.93;18.87;;;3.00;99.90;;;;;;10447018;28;20602;-82
2022/01/12 17:06:20;;;;;;;20.13;18.10;;;2.90;99.90;;;;;;10482192;28;20269;-80
2022/01/12 17:11:25;;;;;;;20.10;18.00;;;2.90;99.90;;;;;;10426294;28;20197;-80
2022/01/12 17:16:59;;;;;;;21.57;19.27;;;2.90;99.90;;;;;;10475687;28;20456;-79
2022/01/12 17:22:02;;;;;;;19.77;17.77;;;2.90;99.90;;;;;;10411487;28;20292;-81
2022/01/12 17:27:10;;;;;;;21.43;19.30;;;2.90;99.90;;;;;;10486422;28;20311;-80
2022/01/12 17:32:12;;;;;;;21.60;19.30;;;2.80;99.90;;;;;;10443351;28;20196;-81
2022/01/12 17:37:15;;;;;;;23.23;20.80;;;2.90;99.90;;;;;;10482189;28;20225;-81
2022/01/12 17:42:22;;;;;;;20.83;18.63;;;2.80;99.90;;;;;;10484754;28;20189;-80
2022/01/12 17:47:26;;;;;;;23.10;20.70;;;2.80;99.90;;;;;;10466665;28;20209;-81
2022/01/12 17:52:29;;;;;;;21.20;19.00;;;2.80;99.90;;;;;;10483219;28;20295;-81
2022/01/12 17:57:33;;;;;;;23.20;20.70;;;2.80;99.90;;;;;;10490208;28;20219;-81
2022/01/12 18:02:35;;;;;;;21.27;19.17;;;2.70;99.90;;;;;;10461389;28;20563;-80
2022/01/12 18:07:37;;;;;;;21.53;19.23;;;2.60;99.90;;;;;;10456027;28;20662;-80
2022/01/12 18:12:41;;;;;;;21.33;19.33;;;2.60;99.90;;;;;;10468592;28;20247;-79
2022/01/12 18:17:46;;;;;;;21.83;19.27;;;2.50;99.90;;;;;;10497554;28;20594;-81
2022/01/12 18:22:48;;;;;;;20.80;18.80;;;2.50;99.90;;;;;;10486541;28;20211;-79
2022/01/12 18:27:52;;;;;;;22.10;19.70;;;2.50;99.90;;;;;;10487963;28;20269;-81
2022/01/12 18:32:54;;;;;;;23.73;21.53;;;2.50;99.90;;;;;;10483647;28;20557;-80
2022/01/12 18:37:56;;;;;;;20.70;18.67;;;2.50;99.90;;;;;;10455261;28;20332;-82
2022/01/12 18:42:59;;;;;;;21.50;19.30;;;2.40;99.90;;;;;;10509894;28;20197;-80
2022/01/12 18:48:02;;;;;;;21.20;19.10;;;2.40;99.90;;;;;;10449163;28;20248;-81
2022/01/12 18:53:04;;;;;;;21.10;19.00;;;2.40;99.90;;;;;;10431997;28;20228;-81
2022/01/12 18:58:08;;;;;;;20.47;18.47;;;2.30;99.90;;;;;;10484671;28;20236;-81
2022/01/12 19:03:11;;;;;;;20.47;18.47;;;2.30;99.90;;;;;;10434153;28;20752;-79
2022/01/12 19:08:13;;;;;;;21.60;19.40;;;2.30;99.90;;;;;;10476636;28;20217;-79
2022/01/12 19:13:16;;;;;;;22.63;20.37;;;2.20;99.90;;;;;;10483508;28;20193;-80
2022/01/12 19:18:18;;;;;;;23.37;20.97;;;2.20;99.90;;;;;;10469464;28;20320;-81
2022/01/12 19:23:22;;;;;;;22.87;20.57;;;2.20;99.90;;;;;;10500560;28;20235;-81
2022/01/12 19:28:27;;;;;;;21.53;19.27;;;2.20;99.90;;;;;;10434619;28;20217;-79
2022/01/12 19:33:32;;;;;;;23.17;20.70;;;2.20;99.90;;;;;;10501799;28;20223;-79
2022/01/12 19:38:34;;;;;;;22.00;19.80;;;2.10;99.90;;;;;;10452792;28;20237;-80
2022/01/12 19:43:38;;;;;;;22.63;20.33;;;2.10;99.90;;;;;;10482760;28;20200;-81
2022/01/12 19:48:41;;;;;;;22.97;20.57;;;2.10;99.90;;;;;;10440016;28;20593;-80
2022/01/12 19:53:49;;;;;;;21.93;19.73;;;2.00;99.90;;;;;;10453537;28;20232;-79
2022/01/12 19:59:02;;;;;;;21.27;19.17;;;2.00;99.90;;;;;;10502367;28;20258;-80
2022/01/12 20:04:09;;;;;;;23.50;21.20;;;1.90;99.90;;;;;;10472044;28;20204;-81
2022/01/12 20:09:26;;;;;;;23.47;21.13;;;1.90;99.90;;;;;;10486560;28;20221;-81
2022/01/12 20:14:30;;;;;;;26.60;24.00;;;1.90;99.90;;;;;;10469081;28;20193;-81
2022/01/12 20:24:57;;;;;;;22.40;20.13;;;1.90;99.90;;;;;;10515206;28;20220;-78
2022/01/12 20:30:00;;;;;;;22.17;19.97;;;1.90;99.90;;;;;;10455830;28;20688;-77
2022/01/12 20:35:05;;;;;;;24.93;21.30;;;1.80;99.90;;;;;;10495857;28;20747;-82
2022/01/12 20:40:11;;;;;;;24.27;21.60;;;1.80;99.90;;;;;;10423284;28;20204;-81
2022/01/12 20:45:15;;;;;;;25.30;22.80;;;1.80;99.90;;;;;;10482764;28;20751;-81
2022/01/12 20:50:17;;;;;;;24.00;21.50;;;1.80;99.90;;;;;;10459303;28;20209;-81
2022/01/12 20:55:19;;;;;;;22.60;20.30;;;1.70;99.90;;;;;;10517694;28;20641;-81
2022/01/12 21:00:23;;;;;;;24.00;21.60;;;1.70;99.90;;;;;;10501347;28;20235;-81
2022/01/12 21:05:25;;;;;;;24.90;22.50;;;1.70;99.90;;;;;;10453041;28;20295;-82
2022/01/12 21:10:27;;;;;;;26.27;21.87;;;1.60;99.90;;;;;;10469834;28;20726;-81
2022/01/12 21:15:31;;;;;;;24.00;21.53;;;1.60;99.90;;;;;;10424829;28;20213;-82
2022/01/12 21:20:33;;;;;;;25.27;22.67;;;1.60;99.90;;;;;;10460335;28;20205;-83
2022/01/12 21:25:35;;;;;;;26.53;23.83;;;1.60;99.90;;;;;;10511798;28;20307;-82
2022/01/12 21:30:39;;;;;;;24.83;22.30;;;1.60;99.90;;;;;;10443608;28;20665;-81
2022/01/12 21:35:45;;;;;;;27.17;24.33;;;1.60;99.90;;;;;;10497136;28;20221;-82
2022/01/12 21:41:01;;;;;;;26.87;24.07;;;1.60;99.90;;;;;;10460118;28;20242;-82
2022/01/12 21:46:05;;;;;;;25.77;23.17;;;1.60;99.90;;;;;;10498763;28;20232;-83
2022/01/12 21:51:07;;;;;;;24.97;22.43;;;1.70;99.90;;;;;;10467562;28;20303;-81
2022/01/12 21:56:09;;;;;;;25.63;22.90;;;1.70;99.90;;;;;;10468155;28;20208;-81
2022/01/12 22:01:13;;;;;;;26.93;24.20;;;1.70;99.90;;;;;;10447781;28;20594;-83
2022/01/12 22:06:16;;;;;;;26.90;24.20;;;1.70;99.90;;;;;;10460516;28;20374;-80
2022/01/12 22:11:18;;;;;;;25.40;22.90;;;1.70;99.90;;;;;;10463784;28;20235;-82
2022/01/12 22:16:22;;;;;;;27.30;24.50;;;1.70;99.90;;;;;;10480899;28;20217;-81
2022/01/12 22:21:24;;;;;;;26.40;23.60;;;1.70;99.90;;;;;;10455100;28;20197;-81
2022/01/12 22:26:26;;;;;;;28.10;25.30;;;1.70;99.90;;;;;;10500545;28;20227;-82
2022/01/12 22:31:30;;;;;;;28.77;25.83;;;1.60;99.90;;;;;;10469169;28;20218;-80
2022/01/12 22:36:32;;;;;;;29.77;26.77;;;1.60;99.90;;;;;;10467935;28;20731;-81
2022/01/12 22:41:34;;;;;;;28.17;25.37;;;1.60;99.90;;;;;;10429212;28;20578;-80
2022/01/12 22:46:38;;;;;;;28.93;25.83;;;1.60;99.90;;;;;;10429395;28;20221;-82
2022/01/12 22:51:41;;;;;;;27.70;24.90;;;1.60;99.90;;;;;;10463602;28;20289;-81
2022/01/12 22:56:51;;;;;;;33.07;29.57;;;1.50;99.90;;;;;;10462947;28;20300;-81
2022/01/12 23:01:54;;;;;;;31.47;28.20;;;1.40;99.90;;;;;;10468788;28;20200;-82
2022/01/12 23:06:56;;;;;;;31.93;28.73;;;1.40;99.90;;;;;;10428540;28;20743;-82
2022/01/12 23:11:59;;;;;;;33.00;29.60;;;1.40;99.90;;;;;;10477103;28;20280;-82
2022/01/12 23:17:02;;;;;;;32.83;29.23;;;1.40;99.90;;;;;;10444257;28;20288;-82
2022/01/12 23:22:05;;;;;;;30.87;27.67;;;1.40;99.90;;;;;;10464413;28;20315;-82
2022/01/12 23:27:07;;;;;;;34.00;30.13;;;1.60;99.90;;;;;;10439469;28;20271;-82
2022/01/12 23:32:11;;;;;;;33.50;29.93;;;1.70;99.90;;;;;;10462568;28;20257;-81
2022/01/12 23:42:52;;;;;;;31.37;28.17;;;1.90;99.90;;;;;;10479328;28;20189;-82
2022/01/12 23:58:37;;;;;;;34.37;30.60;;;2.30;99.90;;;;;;10428876;28;20258;-82
